sensor_id;sensor_type;location;lat;lon;timestamp;pressure;altitude;pressure_sealevel;temperature;humidity
41800;BME280;27468;47.460;19.034;2022-12-20T00:02:23;102307.75;;;-0.19;79.49
41800;BME280;27468;47.460;19.034;2022-12-20T00:04:49;102290.00;;;-0.27;79.23
41800;BME280;27468;47.460;19.034;2022-12-20T00:07:15;102265.41;;;-0.50;79.59
41800;BME280;27468;47.460;19.034;2022-12-20T00:09:40;102275.22;;;-0.45;79.39
41800;BME280;27468;47.460;19.034;2022-12-20T00:12:06;102261.69;;;-0.55;79.58
41800;BME280;27468;47.460;19.034;2022-12-20T00:14:31;102281.38;;;-0.43;79.34
41800;BME280;27468;47.460;19.034;2022-12-20T00:16:56;102248.69;;;-0.41;79.28
41800;BME280;27468;47.460;19.034;2022-12-20T00:19:22;102289.63;;;-0.19;78.83
41800;BME280;27468;47.460;19.034;2022-12-20T00:21:47;102295.75;;;-0.33;78.95
41800;BME280;27468;47.460;19.034;2022-12-20T00:24:13;102296.84;;;-0.13;78.87
41800;BME280;27468;47.460;19.034;2022-12-20T00:26:38;102294.47;;;-0.25;78.59
41800;BME280;27468;47.460;19.034;2022-12-20T00:29:04;102266.78;;;-0.26;78.63
41800;BME280;27468;47.460;19.034;2022-12-20T00:31:31;102254.22;;;-0.18;78.31
41800;BME280;27468;47.460;19.034;2022-12-20T00:33:57;102285.63;;;0.04;77.90
41800;BME280;27468;47.460;19.034;2022-12-20T00:36:26;102290.66;;;0.01;77.80
41800;BME280;27468;47.460;19.034;2022-12-20T00:38:54;102303.06;;;0.07;77.69
41800;BME280;27468;47.460;19.034;2022-12-20T00:41:28;102303.72;;;0.19;77.52
41800;BME280;27468;47.460;19.034;2022-12-20T00:43:54;102256.38;;;0.07;77.37
41800;BME280;27468;47.460;19.034;2022-12-20T00:46:20;102282.63;;;0.29;77.24
41800;BME280;27468;47.460;19.034;2022-12-20T00:48:47;102285.06;;;0.26;77.01
41800;BME280;27468;47.460;19.034;2022-12-20T00:51:16;102278.59;;;0.18;77.20
41800;BME280;27468;47.460;19.034;2022-12-20T00:53:42;102246.75;;;0.04;76.91
41800;BME280;27468;47.460;19.034;2022-12-20T00:56:08;102228.44;;;0.01;76.98
41800;BME280;27468;47.460;19.034;2022-12-20T00:58:36;102245.84;;;0.20;76.87
41800;BME280;27468;47.460;19.034;2022-12-20T01:01:02;102267.00;;;0.27;76.51
41800;BME280;27468;47.460;19.034;2022-12-20T01:03:28;102215.00;;;-0.08;76.80
41800;BME280;27468;47.460;19.034;2022-12-20T01:05:59;102189.56;;;-0.15;76.67
41800;BME280;27468;47.460;19.034;2022-12-20T01:08:27;102238.88;;;0.19;76.43
41800;BME280;27468;47.460;19.034;2022-12-20T01:11:17;102242.69;;;0.25;76.44
41800;BME280;27468;47.460;19.034;2022-12-20T01:13:46;102264.97;;;0.38;76.29
41800;BME280;27468;47.460;19.034;2022-12-20T01:16:18;102258.97;;;0.39;76.24
41800;BME280;27468;47.460;19.034;2022-12-20T01:18:45;102238.06;;;0.20;76.23
41800;BME280;27468;47.460;19.034;2022-12-20T01:21:12;102237.09;;;0.18;76.05
41800;BME280;27468;47.460;19.034;2022-12-20T01:23:39;102204.44;;;0.05;76.07
41800;BME280;27468;47.460;19.034;2022-12-20T01:26:06;102215.34;;;-0.02;76.33
41800;BME280;27468;47.460;19.034;2022-12-20T01:28:37;102261.16;;;0.15;76.66
41800;BME280;27468;47.460;19.034;2022-12-20T01:31:08;102175.88;;;-0.29;76.75
41800;BME280;27468;47.460;19.034;2022-12-20T01:33:35;102244.16;;;0.04;77.07
41800;BME280;27468;47.460;19.034;2022-12-20T01:36:04;102162.69;;;-0.34;76.78
41800;BME280;27468;47.460;19.034;2022-12-20T01:38:30;102175.50;;;-0.20;77.00
41800;BME280;27468;47.460;19.034;2022-12-20T01:40:56;102232.72;;;0.17;76.90
41800;BME280;27468;47.460;19.034;2022-12-20T01:43:23;102225.81;;;0.17;76.78
41800;BME280;27468;47.460;19.034;2022-12-20T01:45:49;102209.78;;;0.08;76.79
41800;BME280;27468;47.460;19.034;2022-12-20T01:48:19;102215.53;;;0.19;76.85
41800;BME280;27468;47.460;19.034;2022-12-20T01:50:46;102166.00;;;-0.04;76.64
41800;BME280;27468;47.460;19.034;2022-12-20T01:53:14;102166.19;;;0.01;76.65
41800;BME280;27468;47.460;19.034;2022-12-20T01:55:40;102178.81;;;0.11;76.62
41800;BME280;27468;47.460;19.034;2022-12-20T01:58:08;102136.94;;;-0.14;76.49
41800;BME280;27468;47.460;19.034;2022-12-20T02:00:35;102140.88;;;-0.05;76.83
41800;BME280;27468;47.460;19.034;2022-12-20T02:03:04;102167.59;;;0.28;76.43
41800;BME280;27468;47.460;19.034;2022-12-20T02:05:35;102144.53;;;0.17;76.67
41800;BME280;27468;47.460;19.034;2022-12-20T02:08:02;102160.97;;;0.17;76.58
41800;BME280;27468;47.460;19.034;2022-12-20T02:13:35;102172.63;;;0.25;76.48
41800;BME280;27468;47.460;19.034;2022-12-20T02:16:03;102129.47;;;-0.08;76.64
41800;BME280;27468;47.460;19.034;2022-12-20T02:18:36;102155.50;;;0.11;76.54
41800;BME280;27468;47.460;19.034;2022-12-20T02:32:48;102175.31;;;-0.07;76.95
41800;BME280;27468;47.460;19.034;2022-12-20T02:35:26;102131.66;;;-0.32;76.99
41800;BME280;27468;47.460;19.034;2022-12-20T02:37:58;102163.72;;;-0.14;76.91
41800;BME280;27468;47.460;19.034;2022-12-20T02:40:32;102058.78;;;-0.72;76.97
41800;BME280;27468;47.460;19.034;2022-12-20T02:43:02;102116.44;;;-0.42;77.08
41800;BME280;27468;47.460;19.034;2022-12-20T02:45:32;102135.97;;;-0.32;77.19
41800;BME280;27468;47.460;19.034;2022-12-20T02:48:06;102146.09;;;-0.37;77.67
41800;BME280;27468;47.460;19.034;2022-12-20T02:50:45;102113.69;;;-0.45;77.46
41800;BME280;27468;47.460;19.034;2022-12-20T02:53:13;102140.41;;;-0.30;77.69
41800;BME280;27468;47.460;19.034;2022-12-20T03:01:48;102145.59;;;-0.14;77.78
41800;BME280;27468;47.460;19.034;2022-12-20T03:04:17;102143.84;;;0.03;77.88
41800;BME280;27468;47.460;19.034;2022-12-20T03:07:00;102128.88;;;-0.03;77.63
41800;BME280;27468;47.460;19.034;2022-12-20T03:09:29;102086.56;;;-0.36;77.59
41800;BME280;27468;47.460;19.034;2022-12-20T03:11:55;102124.44;;;-0.05;77.56
41800;BME280;27468;47.460;19.034;2022-12-20T03:14:20;102131.09;;;0.08;77.74
41800;BME280;27468;47.460;19.034;2022-12-20T03:16:46;102047.78;;;-0.34;77.46
41800;BME280;27468;47.460;19.034;2022-12-20T03:19:11;102095.75;;;-0.08;77.41
41800;BME280;27468;47.460;19.034;2022-12-20T03:21:37;102128.50;;;0.08;77.20
41800;BME280;27468;47.460;19.034;2022-12-20T03:24:02;102119.84;;;0.07;76.86
41800;BME280;27468;47.460;19.034;2022-12-20T03:26:27;102090.88;;;-0.02;76.91
41800;BME280;27468;47.460;19.034;2022-12-20T03:28:54;102061.59;;;-0.17;77.00
41800;BME280;27468;47.460;19.034;2022-12-20T03:31:20;102113.34;;;0.15;76.93
41800;BME280;27468;47.460;19.034;2022-12-20T03:33:45;102039.44;;;-0.28;76.33
41800;BME280;27468;47.460;19.034;2022-12-20T03:36:10;102056.75;;;-0.27;76.65
41800;BME280;27468;47.460;19.034;2022-12-20T03:38:36;102109.53;;;-0.09;76.90
41800;BME280;27468;47.460;19.034;2022-12-20T03:41:01;102108.09;;;-0.20;77.37
41800;BME280;27468;47.460;19.034;2022-12-20T03:43:27;102104.69;;;-0.19;77.14
41800;BME280;27468;47.460;19.034;2022-12-20T03:45:52;102098.88;;;-0.31;77.05
41800;BME280;27468;47.460;19.034;2022-12-20T03:48:17;102113.69;;;-0.29;77.46
41800;BME280;27468;47.460;19.034;2022-12-20T03:50:43;102046.97;;;-0.67;77.46
41800;BME280;27468;47.460;19.034;2022-12-20T03:53:08;102041.78;;;-0.67;77.48
41800;BME280;27468;47.460;19.034;2022-12-20T03:55:34;102085.28;;;-0.44;77.58
41800;BME280;27468;47.460;19.034;2022-12-20T03:57:59;102110.53;;;-0.40;78.09
41800;BME280;27468;47.460;19.034;2022-12-20T04:00:24;102104.72;;;-0.36;77.73
41800;BME280;27468;47.460;19.034;2022-12-20T04:02:50;102109.72;;;-0.39;77.82
41800;BME280;27468;47.460;19.034;2022-12-20T04:05:16;102121.97;;;-0.36;78.01
41800;BME280;27468;47.460;19.034;2022-12-20T04:07:42;102077.56;;;-0.60;78.43
41800;BME280;27468;47.460;19.034;2022-12-20T04:10:07;102120.19;;;-0.37;78.30
41800;BME280;27468;47.460;19.034;2022-12-20T04:12:33;102112.88;;;-0.44;78.43
41800;BME280;27468;47.460;19.034;2022-12-20T04:14:58;102091.03;;;-0.49;78.36
41800;BME280;27468;47.460;19.034;2022-12-20T04:17:24;102054.06;;;-0.63;78.76
41800;BME280;27468;47.460;19.034;2022-12-20T04:19:49;102075.56;;;-0.48;78.45
41800;BME280;27468;47.460;19.034;2022-12-20T04:22:14;102049.34;;;-0.54;78.55
41800;BME280;27468;47.460;19.034;2022-12-20T04:24:40;102057.19;;;-0.52;78.75
41800;BME280;27468;47.460;19.034;2022-12-20T04:27:05;102070.47;;;-0.46;79.08
41800;BME280;27468;47.460;19.034;2022-12-20T04:29:31;102017.66;;;-0.66;79.22
41800;BME280;27468;47.460;19.034;2022-12-20T04:31:56;102039.13;;;-0.51;79.12
41800;BME280;27468;47.460;19.034;2022-12-20T04:34:22;102028.69;;;-0.52;79.31
41800;BME280;27468;47.460;19.034;2022-12-20T04:36:47;102026.84;;;-0.55;79.20
41800;BME280;27468;47.460;19.034;2022-12-20T04:39:13;102054.25;;;-0.26;79.30
41800;BME280;27468;47.460;19.034;2022-12-20T04:41:38;102058.84;;;-0.20;79.02
41800;BME280;27468;47.460;19.034;2022-12-20T04:44:03;102000.28;;;-0.51;78.73
41800;BME280;27468;47.460;19.034;2022-12-20T04:46:29;102058.28;;;-0.15;78.74
41800;BME280;27468;47.460;19.034;2022-12-20T04:48:54;102044.75;;;-0.25;78.28
41800;BME280;27468;47.460;19.034;2022-12-20T04:51:20;101993.41;;;-0.50;78.33
41800;BME280;27468;47.460;19.034;2022-12-20T04:53:45;102069.75;;;-0.10;77.99
41800;BME280;27468;47.460;19.034;2022-12-20T04:56:13;102063.28;;;-0.18;78.21
41800;BME280;27468;47.460;19.034;2022-12-20T04:58:39;101996.47;;;-0.57;78.14
41800;BME280;27468;47.460;19.034;2022-12-20T05:01:04;102088.88;;;-0.08;77.94
41800;BME280;27468;47.460;19.034;2022-12-20T05:03:29;102080.00;;;-0.29;78.12
41800;BME280;27468;47.460;19.034;2022-12-20T05:05:55;102031.84;;;-0.42;78.05
41800;BME280;27468;47.460;19.034;2022-12-20T05:08:21;102046.56;;;-0.41;78.12
41800;BME280;27468;47.460;19.034;2022-12-20T05:10:47;102039.13;;;-0.51;77.96
41800;BME280;27468;47.460;19.034;2022-12-20T05:13:13;102097.72;;;-0.20;78.17
41800;BME280;27468;47.460;19.034;2022-12-20T05:15:38;102066.06;;;-0.31;78.23
41800;BME280;27468;47.460;19.034;2022-12-20T05:18:04;102047.22;;;-0.45;78.20
41800;BME280;27468;47.460;19.034;2022-12-20T05:20:30;102102.81;;;-0.06;78.11
41800;BME280;27468;47.460;19.034;2022-12-20T05:22:56;102088.97;;;-0.22;78.35
41800;BME280;27468;47.460;19.034;2022-12-20T05:25:47;102043.00;;;-0.43;78.24
41800;BME280;27468;47.460;19.034;2022-12-20T05:28:32;102068.44;;;-0.36;78.17
41800;BME280;27468;47.460;19.034;2022-12-20T05:30:57;102082.44;;;-0.32;78.16
41800;BME280;27468;47.460;19.034;2022-12-20T05:33:23;102062.78;;;-0.45;77.83
41800;BME280;27468;47.460;19.034;2022-12-20T05:35:49;102047.03;;;-0.65;78.31
41800;BME280;27468;47.460;19.034;2022-12-20T05:38:14;102106.34;;;-0.38;78.82
41800;BME280;27468;47.460;19.034;2022-12-20T05:40:40;102078.06;;;-0.49;78.76
41800;BME280;27468;47.460;19.034;2022-12-20T05:43:07;102095.50;;;-0.47;78.90
41800;BME280;27468;47.460;19.034;2022-12-20T05:45:32;102093.63;;;-0.49;79.05
41800;BME280;27468;47.460;19.034;2022-12-20T05:47:58;102043.97;;;-0.75;79.45
41800;BME280;27468;47.460;19.034;2022-12-20T05:50:24;102107.47;;;-0.49;79.43
41800;BME280;27468;47.460;19.034;2022-12-20T05:52:49;102067.34;;;-0.73;79.74
41800;BME280;27468;47.460;19.034;2022-12-20T05:55:15;102028.09;;;-0.81;79.46
41800;BME280;27468;47.460;19.034;2022-12-20T05:57:43;102095.00;;;-0.40;79.37
41800;BME280;27468;47.460;19.034;2022-12-20T06:00:10;102040.31;;;-0.62;79.09
41800;BME280;27468;47.460;19.034;2022-12-20T06:02:36;102080.75;;;-0.48;79.09
41800;BME280;27468;47.460;19.034;2022-12-20T06:05:01;102055.78;;;-0.63;79.55
41800;BME280;27468;47.460;19.034;2022-12-20T06:07:27;102016.22;;;-0.77;79.50
41800;BME280;27468;47.460;19.034;2022-12-20T06:09:56;102048.09;;;-0.62;79.31
41800;BME280;27468;47.460;19.034;2022-12-20T06:12:22;102074.34;;;-0.54;79.72
41800;BME280;27468;47.460;19.034;2022-12-20T06:14:48;102008.44;;;-0.93;80.11
41800;BME280;27468;47.460;19.034;2022-12-20T06:17:14;102034.66;;;-0.71;79.88
41800;BME280;27468;47.460;19.034;2022-12-20T06:19:40;102022.84;;;-0.82;79.99
41800;BME280;27468;47.460;19.034;2022-12-20T06:22:06;102018.31;;;-0.86;80.21
41800;BME280;27468;47.460;19.034;2022-12-20T06:24:33;101997.28;;;-1.09;80.53
41800;BME280;27468;47.460;19.034;2022-12-20T06:26:58;101966.41;;;-1.22;80.28
41800;BME280;27468;47.460;19.034;2022-12-20T06:29:24;102041.53;;;-0.88;80.43
41800;BME280;27468;47.460;19.034;2022-12-20T06:31:49;102029.47;;;-0.87;80.29
41800;BME280;27468;47.460;19.034;2022-12-20T06:34:15;102050.13;;;-0.73;80.03
41800;BME280;27468;47.460;19.034;2022-12-20T06:36:40;102061.59;;;-0.68;80.06
41800;BME280;27468;47.460;19.034;2022-12-20T06:39:06;102068.66;;;-0.65;80.14
41800;BME280;27468;47.460;19.034;2022-12-20T06:41:33;102018.00;;;-0.92;80.21
41800;BME280;27468;47.460;19.034;2022-12-20T06:43:59;102061.53;;;-0.69;80.79
41800;BME280;27468;47.460;19.034;2022-12-20T06:46:24;102043.81;;;-0.78;80.96
41800;BME280;27468;47.460;19.034;2022-12-20T06:48:49;101965.25;;;-1.11;80.83
41800;BME280;27468;47.460;19.034;2022-12-20T06:51:15;101988.78;;;-0.90;80.63
41800;BME280;27468;47.460;19.034;2022-12-20T06:53:41;102052.66;;;-0.56;80.58
41800;BME280;27468;47.460;19.034;2022-12-20T06:56:07;102035.75;;;-0.50;80.40
41800;BME280;27468;47.460;19.034;2022-12-20T06:58:32;102019.88;;;-0.56;80.57
41800;BME280;27468;47.460;19.034;2022-12-20T07:00:58;102043.97;;;-0.41;80.23
41800;BME280;27468;47.460;19.034;2022-12-20T07:03:23;102036.06;;;-0.44;80.30
41800;BME280;27468;47.460;19.034;2022-12-20T07:05:53;102034.44;;;-0.42;80.23
41800;BME280;27468;47.460;19.034;2022-12-20T07:08:23;102028.16;;;-0.29;79.95
41800;BME280;27468;47.460;19.034;2022-12-20T07:10:49;102021.38;;;-0.27;79.89
41800;BME280;27468;47.460;19.034;2022-12-20T07:13:16;101964.91;;;-0.50;79.76
41800;BME280;27468;47.460;19.034;2022-12-20T07:15:42;102019.16;;;-0.19;79.45
41800;BME280;27468;47.460;19.034;2022-12-20T07:18:08;102004.50;;;-0.19;79.27
41800;BME280;27468;47.460;19.034;2022-12-20T07:20:33;102026.72;;;-0.06;78.88
41800;BME280;27468;47.460;19.034;2022-12-20T07:22:58;102028.75;;;-0.01;78.84
41800;BME280;27468;47.460;19.034;2022-12-20T07:25:24;102027.16;;;0.03;78.80
41800;BME280;27468;47.460;19.034;2022-12-20T07:27:50;102024.22;;;-0.05;78.25
41800;BME280;27468;47.460;19.034;2022-12-20T07:30:16;102036.13;;;0.10;78.17
41800;BME280;27468;47.460;19.034;2022-12-20T07:32:41;101990.06;;;-0.14;77.98
41800;BME280;27468;47.460;19.034;2022-12-20T07:35:08;102034.88;;;0.19;77.54
41800;BME280;27468;47.460;19.034;2022-12-20T07:37:34;102050.66;;;0.24;77.28
41800;BME280;27468;47.460;19.034;2022-12-20T07:40:00;102051.25;;;0.36;77.22
41800;BME280;27468;47.460;19.034;2022-12-20T07:42:25;102037.59;;;0.40;76.77
41800;BME280;27468;47.460;19.034;2022-12-20T07:44:51;102040.81;;;0.35;76.52
41800;BME280;27468;47.460;19.034;2022-12-20T07:47:16;102041.91;;;0.40;76.40
41800;BME280;27468;47.460;19.034;2022-12-20T07:49:41;102034.13;;;0.40;76.17
41800;BME280;27468;47.460;19.034;2022-12-20T07:52:07;102001.38;;;0.06;76.23
41800;BME280;27468;47.460;19.034;2022-12-20T07:54:36;102044.22;;;0.33;76.19
41800;BME280;27468;47.460;19.034;2022-12-20T07:57:08;102033.97;;;0.37;75.99
41800;BME280;27468;47.460;19.034;2022-12-20T07:59:39;101981.97;;;0.16;75.97
41800;BME280;27468;47.460;19.034;2022-12-20T08:02:08;102033.81;;;0.51;75.66
41800;BME280;27468;47.460;19.034;2022-12-20T08:04:37;101991.16;;;0.27;75.50
41800;BME280;27468;47.460;19.034;2022-12-20T08:07:03;102001.06;;;0.36;75.46
41800;BME280;27468;47.460;19.034;2022-12-20T08:09:30;101971.13;;;0.24;75.29
41800;BME280;27468;47.460;19.034;2022-12-20T08:11:59;101971.28;;;0.27;75.28
41800;BME280;27468;47.460;19.034;2022-12-20T08:14:25;102005.59;;;0.40;74.92
41800;BME280;27468;47.460;19.034;2022-12-20T08:16:51;101943.59;;;0.09;75.19
41800;BME280;27468;47.460;19.034;2022-12-20T08:19:16;101933.97;;;0.06;74.99
41800;BME280;27468;47.460;19.034;2022-12-20T08:21:42;101987.94;;;0.32;75.23
41800;BME280;27468;47.460;19.034;2022-12-20T08:24:07;101967.88;;;0.28;75.11
41800;BME280;27468;47.460;19.034;2022-12-20T08:26:39;101966.31;;;0.32;74.83
41800;BME280;27468;47.460;19.034;2022-12-20T08:29:06;101985.72;;;0.40;74.71
41800;BME280;27468;47.460;19.034;2022-12-20T08:31:36;101976.91;;;0.37;74.82
41800;BME280;27468;47.460;19.034;2022-12-20T08:34:02;101933.50;;;0.15;74.68
41800;BME280;27468;47.460;19.034;2022-12-20T08:36:27;101973.72;;;0.42;74.35
41800;BME280;27468;47.460;19.034;2022-12-20T08:38:53;101989.22;;;0.60;74.16
41800;BME280;27468;47.460;19.034;2022-12-20T08:41:18;101986.63;;;0.60;74.40
41800;BME280;27468;47.460;19.034;2022-12-20T08:43:43;101989.72;;;0.71;73.61
41800;BME280;27468;47.460;19.034;2022-12-20T08:46:10;101965.19;;;0.64;73.68
41800;BME280;27468;47.460;19.034;2022-12-20T08:48:36;101968.66;;;0.64;73.58
41800;BME280;27468;47.460;19.034;2022-12-20T08:51:04;101987.47;;;0.78;73.19
41800;BME280;27468;47.460;19.034;2022-12-20T08:53:31;101967.25;;;0.71;72.97
41800;BME280;27468;47.460;19.034;2022-12-20T08:56:15;101913.72;;;0.54;72.56
41800;BME280;27468;47.460;19.034;2022-12-20T08:58:42;101979.28;;;0.88;72.66
41800;BME280;27468;47.460;19.034;2022-12-20T09:01:10;101948.59;;;0.80;72.26
41800;BME280;27468;47.460;19.034;2022-12-20T09:03:36;101930.56;;;0.63;72.15
41800;BME280;27468;47.460;19.034;2022-12-20T09:06:21;101967.78;;;0.83;71.99
41800;BME280;27468;47.460;19.034;2022-12-20T09:08:47;101975.88;;;0.89;72.24
41800;BME280;27468;47.460;19.034;2022-12-20T09:11:15;101982.16;;;0.94;72.09
41800;BME280;27468;47.460;19.034;2022-12-20T09:13:44;101972.44;;;0.90;72.04
41800;BME280;27468;47.460;19.034;2022-12-20T09:16:11;101970.00;;;0.93;71.80
41800;BME280;27468;47.460;19.034;2022-12-20T09:18:37;101914.09;;;0.63;71.47
41800;BME280;27468;47.460;19.034;2022-12-20T09:21:04;101986.53;;;1.15;71.46
41800;BME280;27468;47.460;19.034;2022-12-20T09:23:31;101944.28;;;0.99;71.14
41800;BME280;27468;47.460;19.034;2022-12-20T09:26:04;101982.38;;;1.20;70.51
41800;BME280;27468;47.460;19.034;2022-12-20T09:28:31;101973.63;;;1.18;70.94
41800;BME280;27468;47.460;19.034;2022-12-20T09:31:01;101947.44;;;1.12;70.84
41800;BME280;27468;47.460;19.034;2022-12-20T09:33:27;101905.59;;;1.06;70.61
41800;BME280;27468;47.460;19.034;2022-12-20T09:35:53;101958.84;;;1.36;69.97
41800;BME280;27468;47.460;19.034;2022-12-20T09:38:19;101943.53;;;1.42;69.96
41800;BME280;27468;47.460;19.034;2022-12-20T09:40:47;101922.59;;;1.39;69.75
41800;BME280;27468;47.460;19.034;2022-12-20T09:43:15;101889.25;;;1.29;69.73
41800;BME280;27468;47.460;19.034;2022-12-20T09:45:41;101907.91;;;1.40;69.33
41800;BME280;27468;47.460;19.034;2022-12-20T09:48:31;101886.72;;;1.30;69.50
41800;BME280;27468;47.460;19.034;2022-12-20T09:54:32;101914.88;;;1.61;68.90
41800;BME280;27468;47.460;19.034;2022-12-20T09:57:46;101921.34;;;1.71;68.66
41800;BME280;27468;47.460;19.034;2022-12-20T10:00:18;101920.59;;;1.75;68.46
41800;BME280;27468;47.460;19.034;2022-12-20T10:02:46;101903.53;;;1.59;68.28
41800;BME280;27468;47.460;19.034;2022-12-20T10:05:19;101913.69;;;1.76;68.27
41800;BME280;27468;47.460;19.034;2022-12-20T10:13:26;101902.59;;;1.80;68.12
41800;BME280;27468;47.460;19.034;2022-12-20T10:15:58;101904.56;;;1.85;68.15
41800;BME280;27468;47.460;19.034;2022-12-20T10:21:07;101905.88;;;1.96;67.74
41800;BME280;27468;47.460;19.034;2022-12-20T10:23:43;101885.34;;;2.04;67.76
41800;BME280;27468;47.460;19.034;2022-12-20T10:26:11;101833.28;;;1.80;67.31
41800;BME280;27468;47.460;19.034;2022-12-20T10:28:37;101873.81;;;1.97;67.32
41800;BME280;27468;47.460;19.034;2022-12-20T10:31:12;101881.75;;;2.23;66.63
41800;BME280;27468;47.460;19.034;2022-12-20T10:33:38;101857.44;;;2.22;66.25
41800;BME280;27468;47.460;19.034;2022-12-20T10:38:55;101851.19;;;2.41;65.84
41800;BME280;27468;47.460;19.034;2022-12-20T10:41:29;101837.66;;;2.51;65.80
41800;BME280;27468;47.460;19.034;2022-12-20T10:46:46;101828.19;;;2.77;65.12
41800;BME280;27468;47.460;19.034;2022-12-20T10:52:02;101831.81;;;3.08;64.35
41800;BME280;27468;47.460;19.034;2022-12-20T10:54:30;101818.28;;;3.18;63.57
41800;BME280;27468;47.460;19.034;2022-12-20T10:56:58;101829.78;;;3.24;62.80
41800;BME280;27468;47.460;19.034;2022-12-20T10:59:35;101824.72;;;3.29;62.26
41800;BME280;27468;47.460;19.034;2022-12-20T11:04:57;101797.03;;;3.33;61.94
41800;BME280;27468;47.460;19.034;2022-12-20T11:07:29;101781.25;;;3.28;61.65
41800;BME280;27468;47.460;19.034;2022-12-20T11:09:58;101797.88;;;3.31;61.25
41800;BME280;27468;47.460;19.034;2022-12-20T11:12:23;101753.22;;;3.21;61.68
41800;BME280;27468;47.460;19.034;2022-12-20T11:14:49;101782.78;;;3.50;61.29
41800;BME280;27468;47.460;19.034;2022-12-20T11:32:38;101770.28;;;3.67;60.41
41800;BME280;27468;47.460;19.034;2022-12-20T11:40:00;101774.75;;;3.71;60.54
41800;BME280;27468;47.460;19.034;2022-12-20T11:45:07;101760.88;;;3.72;60.18
41800;BME280;27468;47.460;19.034;2022-12-20T11:47:52;101756.59;;;3.74;60.02
41800;BME280;27468;47.460;19.034;2022-12-20T11:50:41;101745.31;;;3.75;60.17
41800;BME280;27468;47.460;19.034;2022-12-20T11:53:20;101700.16;;;3.47;60.03
41800;BME280;27468;47.460;19.034;2022-12-20T11:55:49;101712.53;;;3.54;59.83
41800;BME280;27468;47.460;19.034;2022-12-20T11:58:24;101753.38;;;3.82;59.67
41800;BME280;27468;47.460;19.034;2022-12-20T12:01:03;101733.56;;;3.60;59.35
41800;BME280;27468;47.460;19.034;2022-12-20T12:03:39;101723.09;;;3.59;59.84
41800;BME280;27468;47.460;19.034;2022-12-20T12:06:32;101745.53;;;3.82;59.68
41800;BME280;27468;47.460;19.034;2022-12-20T12:11:34;101696.19;;;3.60;59.36
41800;BME280;27468;47.460;19.034;2022-12-20T12:14:03;101728.97;;;3.80;59.67
41800;BME280;27468;47.460;19.034;2022-12-20T12:16:32;101730.03;;;3.87;59.42
41800;BME280;27468;47.460;19.034;2022-12-20T12:18:59;101684.31;;;3.70;59.57
41800;BME280;27468;47.460;19.034;2022-12-20T12:21:30;101698.84;;;3.91;59.75
41800;BME280;27468;47.460;19.034;2022-12-20T12:26:35;101711.84;;;4.21;59.00
41800;BME280;27468;47.460;19.034;2022-12-20T12:31:44;101714.91;;;4.38;58.16
41800;BME280;27468;47.460;19.034;2022-12-20T12:34:57;101717.69;;;4.44;58.15
41800;BME280;27468;47.460;19.034;2022-12-20T12:48:15;101710.44;;;4.34;57.67
41800;BME280;27468;47.460;19.034;2022-12-20T12:50:46;101691.59;;;4.13;57.77
41800;BME280;27468;47.460;19.034;2022-12-20T12:53:16;101695.28;;;4.21;58.06
41800;BME280;27468;47.460;19.034;2022-12-20T13:00:59;101634.13;;;3.78;58.25
41800;BME280;27468;47.460;19.034;2022-12-20T13:06:52;101691.50;;;4.10;58.44
41800;BME280;27468;47.460;19.034;2022-12-20T13:09:18;101693.97;;;4.05;58.21
41800;BME280;27468;47.460;19.034;2022-12-20T13:11:44;101690.41;;;4.00;58.49
41800;BME280;27468;47.460;19.034;2022-12-20T13:16:35;101646.09;;;3.72;58.93
41800;BME280;27468;47.460;19.034;2022-12-20T13:19:11;101656.00;;;3.83;58.98
41800;BME280;27468;47.460;19.034;2022-12-20T13:21:39;101691.19;;;3.97;59.05
41800;BME280;27468;47.460;19.034;2022-12-20T13:24:36;101677.44;;;4.03;59.08
41800;BME280;27468;47.460;19.034;2022-12-20T13:27:15;101673.91;;;4.01;58.94
41800;BME280;27468;47.460;19.034;2022-12-20T13:32:58;101676.16;;;3.89;59.33
41800;BME280;27468;47.460;19.034;2022-12-20T13:35:29;101664.75;;;3.85;59.21
41800;BME280;27468;47.460;19.034;2022-12-20T13:40:39;101662.09;;;3.84;59.43
41800;BME280;27468;47.460;19.034;2022-12-20T13:45:48;101664.75;;;3.85;59.40
41800;BME280;27468;47.460;19.034;2022-12-20T13:48:19;101647.97;;;3.76;59.30
41800;BME280;27468;47.460;19.034;2022-12-20T13:50:51;101584.22;;;3.35;59.75
41800;BME280;27468;47.460;19.034;2022-12-20T13:53:27;101598.09;;;3.34;59.94
41800;BME280;27468;47.460;19.034;2022-12-20T13:55:53;101654.09;;;3.78;59.74
41800;BME280;27468;47.460;19.034;2022-12-20T13:58:35;101646.94;;;3.71;59.71
41800;BME280;27468;47.460;19.034;2022-12-20T14:01:05;101623.31;;;3.64;59.38
41800;BME280;27468;47.460;19.034;2022-12-20T14:03:39;101631.00;;;3.60;59.57
41800;BME280;27468;47.460;19.034;2022-12-20T14:06:09;101634.72;;;3.68;59.91
41800;BME280;27468;47.460;19.034;2022-12-20T14:08:43;101607.56;;;3.61;59.98
41800;BME280;27468;47.460;19.034;2022-12-20T14:11:13;101632.31;;;3.76;59.79
41800;BME280;27468;47.460;19.034;2022-12-20T14:13:39;101589.94;;;3.53;59.74
41800;BME280;27468;47.460;19.034;2022-12-20T14:16:18;101566.06;;;3.38;59.74
41800;BME280;27468;47.460;19.034;2022-12-20T14:21:24;101567.63;;;3.31;59.99
41800;BME280;27468;47.460;19.034;2022-12-20T14:23:53;101624.75;;;3.55;60.14
41800;BME280;27468;47.460;19.034;2022-12-20T14:26:27;101619.41;;;3.50;60.37
41800;BME280;27468;47.460;19.034;2022-12-20T14:28:55;101615.88;;;3.48;60.37
41800;BME280;27468;47.460;19.034;2022-12-20T14:31:23;101620.19;;;3.46;60.65
41800;BME280;27468;47.460;19.034;2022-12-20T14:33:49;101553.88;;;3.07;60.72
41800;BME280;27468;47.460;19.034;2022-12-20T14:38:43;101547.56;;;2.98;61.10
41800;BME280;27468;47.460;19.034;2022-12-20T14:41:37;101597.00;;;3.25;61.13
41800;BME280;27468;47.460;19.034;2022-12-20T14:44:16;101586.03;;;3.07;61.40